Weather observations for the past three days for
Blythe, Blythe Airport
Imperial (Metric)
Date Time (pdt) Wind (mph) Vis. (mi.) Weather Sky Cond. Temperature (ºF) Relative Humidity Wind Chill (°F) Heat Index (°F) Pressure Precipitation (in)
Air Dwpt 6 hour altimeter (in) sea level (mb) 1 hr 3 hr 6 hr
Max. Min.
01 18:52 S 20 G 31 7.00 A Few Clouds FEW023 91.9 64.9 41% 94 29.78 1007.8
01 16:52 W 17 G 24 10.00 Fair CLR 105.1 48.9 105.1 93.9 15% 102 29.77 1007.5
01 15:52 SW 18 G 25 10.00 A Few Clouds FEW100 105.1 51.1 16% 102 29.79 1007.9
01 14:52 S 10 G 22 10.00 A Few Clouds FEW100 102 60.1 25% 103 29.8 1008.5
01 13:52 S 14 G 29 10.00 Fair CLR 102 64 29% 105 29.83 1009.3
01 12:52 S 9 G 20 10.00 Fair CLR 100 66 33% 104 29.85 1010.2
01 11:52 S 15 G 23 10.00 Fair CLR 97 66.9 37% 101 29.88 1011.1
01 10:52 S 13 G 20 10.00 A Few Clouds FEW055 93.9 70 95 82.9 46% 100 29.9 1011.7
01 08:52 S 12 10.00 Fair CLR 90 73 58% 98 29.88 1011.2
01 07:52 S 7 10.00 Fair CLR 87.1 73.9 65% 95 29.88 1011.1
01 06:52 S 7 10.00 Fair CLR 84 71.1 65% 89 29.88 1011.0
01 05:52 S 8 10.00 Fair CLR 84.9 69.1 59% 89 29.86 1010.3
01 04:52 S 10 10.00 Fair CLR 86 66 93 84.9 51% 88 29.84 1009.9
01 03:52 S 7 10.00 Fair CLR 87.1 54 32% 85 29.84 1009.5
01 02:52 S 7 10.00 Fair CLR 89.1 52 28% 87 29.83 1009.4
01 01:52 S 7 10.00 Fair CLR 84.9 60.1 43% 85 29.84 1009.6
01 00:52 S 10 10.00 Fair CLR 88 61 40% 88 29.83 1009.5
31 23:52 S 9 10.00 Fair CLR 89.1 64 43% 90 29.82 1009.1
31 22:52 S 16 10.00 Fair CLR 93 59 93 89.1 32% 92 29.82 1008.8
31 21:52 SE 6 10.00 Fair CLR 90 62.1 39% 90 29.81 1008.8
31 20:52 SE 7 10.00 Fair CLR 90 63 41% 91 29.79 1008.1
31 18:52 E 16 10.00 Fair CLR 91.9 63 38% 93 29.77 1007.3
31 17:52 E 16 G 25 6.00 Fair with Haze CLR 91 66.9 45% 94 29.76 1006.9
31 16:52 NE 23 9.00 Partly Cloudy and Breezy SCT028 93 64.9 106 93 40% 95 29.74 1006.4
31 15:52 S 15 G 22 10.00 Fair CLR 106 48 14% 102 29.75 1006.4
31 13:52 S 13 G 24 10.00 Fair CLR 102.9 53.1 19% 101 29.8 1008.1
31 12:52 S 20 G 30 10.00 Fair CLR 102.9 53.1 19% 101 29.82 1008.9
31 11:52 S 16 10.00 Fair CLR 102 44.1 14% 98 29.84 1009.7
31 10:52 S 17 10.00 Fair CLR 100.9 43 100.9 84.9 14% 97 29.85 1009.9
31 09:52 S 15 10.00 Fair CLR 98.1 42.1 15% 94 29.84 1009.7
31 08:52 S 16 10.00 Fair CLR 93.9 39 15% 90 29.84 1009.6
31 07:52 S 12 10.00 Fair CLR 88 46.9 24% 85 29.83 1009.3
31 06:52 S 9 10.00 Mostly Cloudy BKN110 86 45 24% 83 29.8 1008.5
31 05:52 S 9 10.00 Fair CLR 87.1 46 24% 84 29.77 1007.4
31 04:52 S 12 10.00 Partly Cloudy SCT100 90 44.1 99 88 20% 86 29.76 1007.0
31 03:52 S 10 10.00 Mostly Cloudy SCT090 BKN110 88 48 25% 85 29.76 1007.1
31 02:52 S 10 10.00 Fair CLR 89.1 48 24% 86 29.74 1006.3
31 01:52 S 12 10.00 Fair CLR 91 48.9 24% 88 29.75 1006.5
31 00:52 S 12 10.00 Fair CLR 91.9 51.1 25% 89 29.76 1006.7
30 23:52 S 13 10.00 Fair CLR 96.1 50 21% 93 29.75 1006.4
30 22:52 SW 15 10.00 Fair CLR 99 52 106 99 21% 96 29.73 1005.8
30 21:52 S 12 10.00 Fair CLR 99 54 22% 97 29.72 1005.6
30 20:52 SW 7 10.00 Fair CLR 100 52 20% 97 29.71 1005.3
30 19:52 SW 9 10.00 Fair CLR 102.9 52 18% 100 29.68 1004.2
30 18:52 SW 13 10.00 Fair CLR 105.1 55.9 20% 104 29.68 1004.0
30 17:52 S 9 10.00 Fair CLR 105.1 64.9 27% 109 29.67 1003.8
30 16:52 S 17 10.00 Fair CLR 106 66.9 106 100 28% 112 29.68 1004.2
30 15:52 S 18 10.00 A Few Clouds FEW042 104 68 31% 111 29.7 1004.9
30 14:52 S 14 10.00 Fair CLR 106 69.1 31% 114 29.73 1005.9
30 13:52 S 13 G 23 10.00 Fair CLR 104 68 31% 111 29.76 1007.0
30 12:52 S 14 G 24 10.00 Fair CLR 102.9 69.1 34% 110 29.79 1007.9
30 11:52 S 12 G 23 10.00 Fair CLR 100.9 71.1 38% 110 29.81 1008.7
30 10:52 S 18 G 29 10.00 Fair CLR 100.9 54 102 90 21% 99 29.83 1009.4
30 09:52 S 17 10.00 Fair CLR 100 60.1 27% 101 29.83 1009.3
30 08:52 S 18 G 29 10.00 Fair CLR 96.1 57.9 28% 95 29.83 1009.2
30 07:52 S 14 10.00 Fair CLR 93.9 52 24% 91 29.82 1008.9
30 06:52 S 9 10.00 Fair CLR 91 53.1 27% 89 29.8 1008.1
30 05:52 S 12 10.00 Fair CLR 91 53.1 27% 89 29.78 1007.5
30 04:52 S 16 10.00 Fair CLR 90 55 100 90 31% 88 29.76 1006.9
30 03:52 S 13 10.00 Fair CLR 91.9 54 28% 90 29.75 1006.6
30 02:52 S 15 10.00 Fair CLR 93.9 53.1 25% 91 29.74 1006.1
30 01:52 S 12 10.00 Fair CLR 93.9 54 26% 92 29.73 1005.9
30 00:52 S 8 10.00 Fair CLR 93 57 30% 92 29.73 1005.8
29 23:52 E 5 10.00 Fair CLR 96.1 55.9 26% 94 29.72 1005.5
29 22:52 Vrbl 7 10.00 Fair CLR 97 57 113 97 26% 96 29.72 1005.7
29 21:52 W 7 10.00 Fair CLR 100.9 55 22% 99 29.72 1005.4
29 20:52 SW 7 10.00 Fair CLR 104 55 20% 103 29.7 1005.0
29 19:52 W 12 10.00 Fair CLR 107.1 53.1 17% 105 29.68 1004.0
Date Time (pdt) Wind (mph) Vis. (mi.) Weather Sky Cond. Air Dwpt Max. Min. Relative Humidity Wind Chill (°F) Heat Index (°F) altimeter (in) sea level (mb) 1 hr 3 hr 6 hr
6 hour
Temperature (ºF) Pressure Precipitation (in)